Terminal Aerodrome Forecast
Issued by NWS

Home | Current Version | Previous Version | Graphics & Text | Print | Product List | Glossary On
Versions: 1 2 3 4 5 6 7 8 9 10 11 12 13 14
402
FTUS43 KFGF 201624 AAA
TAFBJI
TAF AMD
KBJI 201624Z 2016/2112 VRB06KT P6SM BKN012
      TEMPO 2016/2018 SCT015
     FM201800 17009KT P6SM FEW250
     FM210600 VRB05KT P6SM VCTS BKN090CB=

USA.gov is the U.S. government's official web portal to all federal, state and local government web resources and services.